Time;durP1;ratioP1;P1;durP2;ratioP2;P2;SDS_P1;SDS_P2;PMS_P1;PMS_P2;Temp;Humidity;BMP_temperature;BMP_pressure;BME280_temperature;BME280_humidity;BME280_pressure;Samples;Min_cycle;Max_cycle;Signal;HPM_P1;HPM_P2
2021/01/12 00:00:24;;;;;;;10.13;6.90;;;3.50;73.30;;;;;;5042652;28;20501;-66
2021/01/12 00:02:51;;;;;;;15.85;6.70;;;3.60;73.60;;;;;;5039014;28;20083;-66
2021/01/12 00:05:17;;;;;;;12.05;6.70;;;3.50;73.20;;;;;;5034873;28;20029;-66
2021/01/12 00:07:43;;;;;;;10.65;5.72;;;3.50;74.00;;;;;;5046182;28;20056;-67
2021/01/12 00:10:09;;;;;;;11.85;6.07;;;3.50;73.50;;;;;;5045782;28;20539;-66
2021/01/12 00:12:35;;;;;;;11.52;6.43;;;3.40;73.70;;;;;;5045001;28;20037;-66
2021/01/12 00:15:03;;;;;;;11.45;6.90;;;3.30;74.40;;;;;;5042939;28;20093;-66
2021/01/12 00:17:28;;;;;;;8.93;5.93;;;3.30;74.60;;;;;;5046536;28;20041;-66
2021/01/12 00:19:54;;;;;;;12.77;6.63;;;3.30;74.40;;;;;;5042063;28;20028;-64
2021/01/12 00:22:20;;;;;;;13.20;7.13;;;3.40;73.50;;;;;;5046774;28;20480;-63
2021/01/12 00:24:47;;;;;;;11.60;6.38;;;3.50;73.10;;;;;;5042986;28;20039;-65
2021/01/12 00:27:15;;;;;;;12.02;6.80;;;3.50;73.30;;;;;;5044380;28;20041;-66
2021/01/12 00:29:42;;;;;;;12.07;6.80;;;3.50;73.10;;;;;;5047128;28;20072;-66
2021/01/12 00:32:17;;;;;;;11.65;6.78;;;3.40;73.60;;;;;;5045352;28;20060;-64
2021/01/12 00:34:43;;;;;;;14.25;7.03;;;3.40;74.60;;;;;;5047405;28;20067;-64
2021/01/12 00:37:09;;;;;;;12.85;7.32;;;3.40;74.00;;;;;;5041379;28;20489;-65
2021/01/12 00:39:35;;;;;;;12.73;7.32;;;3.60;73.70;;;;;;5045081;28;20029;-64
2021/01/12 00:42:01;;;;;;;11.20;6.38;;;3.60;73.50;;;;;;5045173;28;20025;-65
2021/01/12 00:44:27;;;;;;;9.82;6.38;;;3.70;73.40;;;;;;5045404;28;20056;-64
2021/01/12 00:46:53;;;;;;;10.20;6.07;;;3.70;73.70;;;;;;5043658;28;20654;-64
2021/01/12 00:49:21;;;;;;;11.10;6.65;;;3.80;73.20;;;;;;5045855;28;20374;-64
2021/01/12 00:51:47;;;;;;;13.25;7.10;;;3.80;72.60;;;;;;5044840;28;20477;-64
2021/01/12 00:54:14;;;;;;;10.70;6.28;;;3.80;72.80;;;;;;5043633;28;20032;-66
2021/01/12 00:56:40;;;;;;;11.30;7.15;;;3.80;73.30;;;;;;5043199;28;20044;-66
2021/01/12 00:59:06;;;;;;;10.10;5.90;;;3.80;73.00;;;;;;5045927;28;20029;-63
2021/01/12 01:01:33;;;;;;;11.18;6.68;;;3.60;73.50;;;;;;5040120;28;20033;-64
2021/01/12 01:03:59;;;;;;;13.23;6.72;;;3.70;73.60;;;;;;5045717;28;20029;-65
2021/01/12 01:06:25;;;;;;;14.20;7.10;;;3.70;74.20;;;;;;5045196;28;20534;-64
2021/01/12 01:08:52;;;;;;;11.25;6.72;;;3.70;74.00;;;;;;5041223;28;20041;-65
2021/01/12 01:11:18;;;;;;;13.32;7.63;;;3.60;74.10;;;;;;5044685;28;20404;-66
2021/01/12 01:13:44;;;;;;;12.73;7.35;;;3.50;75.00;;;;;;5043320;28;20052;-66
2021/01/12 01:16:10;;;;;;;12.75;6.95;;;3.50;75.00;;;;;;5043742;28;20052;-66
2021/01/12 01:18:36;;;;;;;12.68;6.93;;;3.50;75.00;;;;;;5045311;28;20047;-66
2021/01/12 01:21:02;;;;;;;16.48;7.68;;;3.60;75.00;;;;;;5046322;28;20796;-66
2021/01/12 01:23:28;;;;;;;10.70;6.80;;;3.60;74.80;;;;;;5045152;28;20029;-66
2021/01/12 01:25:53;;;;;;;12.45;6.90;;;3.50;76.00;;;;;;5045558;28;20568;-66
2021/01/12 01:28:20;;;;;;;15.93;7.28;;;3.40;76.60;;;;;;5045370;28;20041;-65
2021/01/12 01:30:47;;;;;;;11.77;7.03;;;3.50;78.10;;;;;;5044265;28;20041;-66
2021/01/12 01:33:13;;;;;;;13.80;8.55;;;3.40;79.60;;;;;;5044915;28;20232;-66
2021/01/12 01:35:38;;;;;;;15.00;8.30;;;3.20;81.00;;;;;;5042644;28;20068;-65
2021/01/12 01:38:04;;;;;;;16.40;9.30;;;3.10;82.20;;;;;;5044061;28;20025;-66
2021/01/12 01:40:30;;;;;;;15.55;9.02;;;3.00;83.90;;;;;;5045241;28;20082;-66
2021/01/12 01:42:56;;;;;;;17.98;9.18;;;2.90;84.60;;;;;;5045140;28;20404;-65
2021/01/12 01:45:24;;;;;;;17.58;9.48;;;2.80;85.40;;;;;;5043241;28;20132;-66
2021/01/12 01:47:51;;;;;;;17.70;9.90;;;2.70;86.50;;;;;;5044918;28;20052;-66
2021/01/12 01:50:20;;;;;;;18.38;9.63;;;2.70;87.10;;;;;;5044564;28;20033;-66
2021/01/12 01:52:53;;;;;;;17.35;9.45;;;2.60;87.70;;;;;;5044321;28;20132;-66
2021/01/12 01:55:20;;;;;;;21.45;10.45;;;2.70;87.80;;;;;;5038354;28;20029;-66
2021/01/12 01:57:46;;;;;;;18.27;9.60;;;2.60;88.30;;;;;;5033537;28;20033;-63
2021/01/12 02:00:14;;;;;;;19.88;10.40;;;2.60;88.40;;;;;;5039870;28;20486;-63
2021/01/12 02:03:16;;;;;;;19.52;11.07;;;2.50;89.00;;;;;;5044897;28;20029;-63
2021/01/12 02:05:49;;;;;;;18.30;9.48;;;2.50;89.40;;;;;;5043655;28;20139;-66
2021/01/12 02:08:41;;;;;;;19.75;11.20;;;2.60;89.10;;;;;;5025341;28;20037;-63
2021/01/12 02:11:08;;;;;;;18.58;10.05;;;2.50;89.40;;;;;;5037524;28;20090;-64
2021/01/12 02:13:34;;;;;;;16.73;10.85;;;2.40;90.00;;;;;;5039953;28;20134;-67
2021/01/12 02:16:01;;;;;;;18.33;10.30;;;2.50;90.00;;;;;;5042640;28;20130;-68
2021/01/12 02:18:32;;;;;;;19.38;10.75;;;2.50;90.00;;;;;;5043069;28;20053;-64
2021/01/12 02:21:03;;;;;;;24.02;11.48;;;2.60;90.10;;;;;;5043356;28;20039;-64
2021/01/12 02:23:45;;;;;;;26.33;11.75;;;2.50;90.20;;;;;;5042483;28;20032;-64
2021/01/12 02:26:11;;;;;;;19.77;10.90;;;2.50;90.40;;;;;;5042594;28;20437;-65
2021/01/12 02:28:36;;;;;;;17.80;9.98;;;2.60;90.20;;;;;;5038007;28;20114;-65
2021/01/12 02:31:02;;;;;;;19.13;10.35;;;2.50;90.10;;;;;;5041222;28;20029;-65
2021/01/12 02:33:28;;;;;;;19.92;10.63;;;2.60;90.30;;;;;;5043395;28;20067;-66
2021/01/12 02:35:55;;;;;;;22.25;10.50;;;2.70;90.20;;;;;;5040310;28;20456;-63
2021/01/12 02:38:22;;;;;;;18.50;10.85;;;2.70;89.70;;;;;;5042139;28;20143;-65
2021/01/12 02:40:47;;;;;;;19.33;10.50;;;2.70;89.60;;;;;;5036894;28;20037;-64
2021/01/12 02:43:14;;;;;;;21.45;10.40;;;2.80;90.00;;;;;;5038490;28;20512;-64
2021/01/12 02:45:39;;;;;;;19.45;10.85;;;2.70;89.90;;;;;;5037487;28;20029;-64
2021/01/12 02:48:06;;;;;;;20.02;10.52;;;2.60;90.20;;;;;;5038340;28;20734;-64
2021/01/12 02:50:31;;;;;;;18.50;10.77;;;2.50;90.50;;;;;;5037921;28;20041;-64
2021/01/12 02:52:57;;;;;;;18.48;10.93;;;2.50;90.60;;;;;;5037904;28;20130;-64
2021/01/12 02:55:23;;;;;;;20.75;11.52;;;2.50;90.60;;;;;;5037604;28;20128;-64
2021/01/12 02:57:48;;;;;;;19.65;10.45;;;2.40;91.00;;;;;;5037508;28;20037;-64
2021/01/12 03:00:16;;;;;;;20.80;11.27;;;2.40;90.90;;;;;;5035922;28;20044;-64
2021/01/12 03:02:42;;;;;;;17.67;10.50;;;2.40;90.80;;;;;;5037534;28;20135;-64
2021/01/12 03:05:09;;;;;;;20.77;11.77;;;2.40;90.90;;;;;;5036035;28;20036;-64
2021/01/12 03:07:35;;;;;;;22.85;11.93;;;2.40;91.00;;;;;;5037309;28;20040;-64
2021/01/12 03:10:03;;;;;;;23.17;11.68;;;2.40;91.30;;;;;;5038104;28;20039;-64
2021/01/12 03:12:28;;;;;;;23.52;11.60;;;2.40;91.10;;;;;;5028490;28;20051;-64
2021/01/12 03:14:54;;;;;;;19.80;10.88;;;2.40;90.90;;;;;;5037400;28;20041;-64
2021/01/12 03:17:20;;;;;;;21.48;11.98;;;2.40;91.20;;;;;;5037839;28;20079;-64
2021/01/12 03:19:46;;;;;;;22.00;11.40;;;2.60;91.10;;;;;;5037376;28;20049;-64
2021/01/12 03:22:12;;;;;;;21.55;11.00;;;2.60;90.80;;;;;;5027060;28;20064;-64
2021/01/12 03:24:38;;;;;;;17.70;9.95;;;2.60;90.80;;;;;;5037079;28;20029;-64
2021/01/12 03:27:04;;;;;;;19.33;10.70;;;2.60;90.80;;;;;;5035901;28;20033;-64
2021/01/12 03:29:30;;;;;;;22.27;11.57;;;2.70;90.70;;;;;;5036677;28;20120;-64
2021/01/12 03:31:56;;;;;;;19.15;10.75;;;2.80;90.60;;;;;;5037597;28;20054;-64
2021/01/12 03:34:23;;;;;;;18.98;10.38;;;2.80;90.40;;;;;;5037693;28;20141;-64
2021/01/12 03:36:48;;;;;;;19.48;10.88;;;2.80;90.40;;;;;;5031457;28;20041;-64
2021/01/12 03:39:14;;;;;;;19.95;10.73;;;2.70;90.60;;;;;;5035356;28;20733;-64
2021/01/12 03:41:39;;;;;;;20.88;11.65;;;2.70;90.90;;;;;;5038406;28;20036;-64
2021/01/12 03:44:05;;;;;;;19.33;10.88;;;2.70;90.90;;;;;;5040750;28;20680;-64
2021/01/12 03:46:31;;;;;;;20.05;11.90;;;2.80;90.70;;;;;;5040848;28;20082;-64
2021/01/12 03:48:57;;;;;;;17.98;10.45;;;2.80;90.70;;;;;;5039346;28;20036;-64
2021/01/12 03:51:25;;;;;;;17.77;11.05;;;2.80;90.60;;;;;;5034286;28;20040;-64
2021/01/12 03:53:51;;;;;;;17.75;10.00;;;2.90;90.60;;;;;;5041209;28;20041;-64
2021/01/12 03:56:18;;;;;;;16.90;9.90;;;2.90;90.40;;;;;;5039217;28;20116;-64
2021/01/12 03:58:43;;;;;;;19.30;10.75;;;2.90;90.40;;;;;;5038013;28;20083;-64
2021/01/12 04:01:10;;;;;;;20.42;11.02;;;2.80;90.60;;;;;;5037532;28;20033;-64
2021/01/12 04:03:36;;;;;;;19.88;11.13;;;2.80;90.60;;;;;;5038578;28;20103;-64
2021/01/12 04:06:09;;;;;;;21.25;11.50;;;2.70;91.00;;;;;;5040226;28;20119;-64
2021/01/12 04:08:35;;;;;;;22.23;12.10;;;2.80;91.00;;;;;;5039506;28;20028;-64
2021/01/12 04:11:01;;;;;;;20.55;12.15;;;2.70;91.10;;;;;;5037598;28;20037;-64
2021/01/12 04:13:27;;;;;;;21.65;11.80;;;2.70;91.10;;;;;;5040234;28;20036;-64
2021/01/12 04:15:52;;;;;;;20.10;11.05;;;2.60;91.10;;;;;;5036918;28;20037;-64
2021/01/12 04:18:18;;;;;;;21.38;11.02;;;2.70;91.20;;;;;;5039768;28;20151;-63
2021/01/12 04:20:44;;;;;;;18.10;11.25;;;2.80;90.80;;;;;;5036981;28;20025;-64
2021/01/12 04:23:09;;;;;;;20.90;11.70;;;2.80;90.80;;;;;;5040672;28;20899;-64
2021/01/12 04:25:38;;;;;;;25.38;12.20;;;2.80;90.60;;;;;;5040090;28;20071;-64
2021/01/12 04:28:04;;;;;;;22.40;12.00;;;2.80;90.70;;;;;;5040331;28;20404;-64
2021/01/12 04:30:30;;;;;;;21.42;12.45;;;2.70;91.00;;;;;;5040439;28;20045;-64
2021/01/12 04:32:56;;;;;;;21.65;11.88;;;2.70;91.10;;;;;;5040226;28;20033;-65
2021/01/12 04:35:21;;;;;;;22.02;12.40;;;2.70;91.20;;;;;;5038723;28;20176;-64
2021/01/12 04:37:47;;;;;;;21.85;12.15;;;2.70;91.20;;;;;;5040231;28;20226;-64
2021/01/12 04:40:13;;;;;;;20.92;12.20;;;2.60;91.40;;;;;;5040345;28;20048;-64
2021/01/12 04:42:38;;;;;;;22.02;12.40;;;2.70;91.30;;;;;;5039339;28;20025;-64
2021/01/12 04:45:06;;;;;;;22.17;12.18;;;2.80;91.10;;;;;;5034615;28;20543;-64
2021/01/12 04:47:32;;;;;;;20.33;11.38;;;2.90;91.00;;;;;;5039406;28;20075;-64
2021/01/12 04:50:03;;;;;;;20.23;11.82;;;2.90;90.80;;;;;;5039503;28;20119;-64
2021/01/12 04:52:28;;;;;;;21.58;12.38;;;2.80;90.90;;;;;;5039140;28;20135;-64
2021/01/12 04:54:54;;;;;;;21.42;12.27;;;2.80;91.10;;;;;;5040091;28;20114;-64
2021/01/12 04:57:20;;;;;;;22.85;12.38;;;2.80;91.00;;;;;;5039096;28;20036;-64
2021/01/12 04:59:46;;;;;;;20.92;12.52;;;2.90;91.20;;;;;;5040223;28;20702;-64
2021/01/12 05:02:14;;;;;;;23.33;13.13;;;2.90;91.10;;;;;;5037684;28;20115;-64
2021/01/12 05:04:41;;;;;;;23.48;13.43;;;2.90;90.90;;;;;;5038255;28;20098;-64
2021/01/12 05:07:08;;;;;;;17.90;10.90;;;2.90;90.90;;;;;;5039508;28;20198;-64
2021/01/12 05:09:37;;;;;;;22.35;12.18;;;2.90;90.70;;;;;;5039474;28;20036;-64
2021/01/12 05:12:05;;;;;;;20.48;11.75;;;2.90;90.80;;;;;;5039026;28;20071;-64
2021/01/12 05:14:32;;;;;;;23.90;12.10;;;2.90;90.90;;;;;;5039051;28;20028;-64
2021/01/12 05:16:58;;;;;;;21.48;12.63;;;2.90;91.00;;;;;;5035838;28;20481;-64
2021/01/12 05:19:34;;;;;;;20.20;11.25;;;2.90;91.00;;;;;;5038813;28;20056;-64
2021/01/12 05:22:03;;;;;;;23.88;12.90;;;2.80;91.00;;;;;;5037992;28;20037;-64
2021/01/12 05:24:38;;;;;;;22.77;11.77;;;2.80;91.30;;;;;;5038836;28;20038;-64
2021/01/12 05:27:06;;;;;;;21.70;12.68;;;2.70;91.70;;;;;;5038200;28;20037;-64
2021/01/12 05:29:35;;;;;;;22.33;12.40;;;2.80;91.70;;;;;;5038944;28;20116;-64
2021/01/12 05:32:03;;;;;;;22.33;12.85;;;2.80;91.50;;;;;;5038779;28;20045;-64
2021/01/12 05:34:30;;;;;;;21.30;12.63;;;2.80;91.40;;;;;;5038454;28;20457;-64
2021/01/12 05:36:58;;;;;;;22.00;12.75;;;2.80;91.30;;;;;;5037848;28;20118;-64
2021/01/12 05:39:25;;;;;;;19.23;11.95;;;2.80;91.40;;;;;;5037094;28;20044;-64
2021/01/12 05:41:54;;;;;;;20.23;11.25;;;2.80;91.30;;;;;;5038200;28;20041;-64
2021/01/12 05:44:24;;;;;;;20.75;11.77;;;2.90;91.30;;;;;;5038893;28;20777;-64
2021/01/12 05:46:52;;;;;;;16.48;10.95;;;3.00;91.20;;;;;;5038670;28;20036;-64
2021/01/12 05:49:20;;;;;;;24.17;12.65;;;2.90;91.10;;;;;;5029371;28;20633;-62
2021/01/12 05:51:48;;;;;;;18.73;11.27;;;2.80;91.30;;;;;;5037951;28;20339;-64
2021/01/12 05:54:31;;;;;;;21.67;12.15;;;2.80;91.40;;;;;;5038904;28;20041;-65
2021/01/12 05:57:00;;;;;;;18.90;10.93;;;2.90;91.40;;;;;;5030078;28;20033;-65
2021/01/12 05:59:28;;;;;;;20.75;11.98;;;2.90;91.30;;;;;;5038790;28;20469;-64
2021/01/12 06:02:17;;;;;;;20.40;11.52;;;2.90;91.40;;;;;;5038722;28;20029;-65
2021/01/12 06:04:45;;;;;;;18.38;11.82;;;3.00;91.30;;;;;;5030945;28;20048;-63
2021/01/12 06:07:11;;;;;;;20.05;11.65;;;3.00;91.00;;;;;;5035336;28;20446;-65
2021/01/12 06:09:37;;;;;;;22.27;12.40;;;3.00;91.20;;;;;;5037784;28;20062;-65
2021/01/12 06:12:04;;;;;;;17.63;11.50;;;3.10;91.00;;;;;;5038140;28;20045;-62
2021/01/12 06:14:30;;;;;;;19.30;11.57;;;3.10;90.80;;;;;;5034127;28;20038;-64
2021/01/12 06:16:58;;;;;;;18.98;11.38;;;3.10;90.80;;;;;;5019499;28;20395;-65
2021/01/12 06:19:33;;;;;;;18.65;10.95;;;3.00;91.10;;;;;;5035536;28;20825;-64
2021/01/12 06:22:12;;;;;;;18.13;11.07;;;3.00;91.30;;;;;;5030436;28;20064;-65
2021/01/12 06:25:13;;;;;;;17.83;11.02;;;3.00;91.40;;;;;;5037230;28;20045;-62
2021/01/12 06:27:39;;;;;;;18.33;10.15;;;3.00;91.30;;;;;;5011121;28;20060;-64
2021/01/12 06:30:07;;;;;;;16.40;10.13;;;3.00;91.40;;;;;;5037327;28;20036;-65
2021/01/12 06:32:35;;;;;;;20.52;11.15;;;3.10;91.40;;;;;;5037603;28;20037;-62
2021/01/12 06:35:10;;;;;;;18.50;10.65;;;3.20;91.20;;;;;;5027848;28;20043;-64
2021/01/12 06:37:42;;;;;;;18.58;10.23;;;3.30;90.60;;;;;;5023713;28;20041;-64
2021/01/12 06:40:10;;;;;;;15.18;9.48;;;3.20;90.80;;;;;;5031490;28;20040;-64
2021/01/12 06:42:36;;;;;;;14.35;9.70;;;3.20;90.70;;;;;;5037377;28;20995;-64
2021/01/12 06:45:04;;;;;;;17.38;10.82;;;3.30;90.60;;;;;;5037465;28;20100;-64
2021/01/12 06:47:32;;;;;;;17.27;10.60;;;3.20;90.90;;;;;;5032978;28;20029;-64
2021/01/12 06:50:11;;;;;;;15.50;10.27;;;3.10;91.10;;;;;;5036120;28;20037;-64
2021/01/12 06:52:46;;;;;;;18.40;9.65;;;3.00;91.20;;;;;;5028948;28;20049;-64
2021/01/12 06:55:14;;;;;;;15.60;9.80;;;3.20;91.10;;;;;;5049444;28;20029;-64
2021/01/12 06:57:48;;;;;;;16.65;9.40;;;3.30;90.90;;;;;;5037287;28;20124;-64
2021/01/12 07:00:15;;;;;;;15.30;9.45;;;3.30;90.60;;;;;;5037640;28;20041;-62
2021/01/12 07:02:41;;;;;;;14.85;9.45;;;3.40;90.60;;;;;;5035277;28;20025;-64
2021/01/12 07:05:07;;;;;;;16.42;10.13;;;3.30;90.60;;;;;;5027721;28;20042;-64
2021/01/12 07:07:36;;;;;;;14.35;9.23;;;3.20;90.80;;;;;;5029966;28;20041;-64
2021/01/12 07:10:08;;;;;;;13.82;9.15;;;3.30;90.70;;;;;;5037370;28;20774;-62
2021/01/12 07:12:35;;;;;;;13.98;8.52;;;3.40;90.50;;;;;;5035090;28;20036;-64
2021/01/12 07:15:07;;;;;;;15.73;8.85;;;3.40;90.60;;;;;;5029979;28;20135;-64
2021/01/12 07:17:38;;;;;;;13.07;8.45;;;3.50;90.50;;;;;;5032426;28;20029;-64
2021/01/12 07:20:21;;;;;;;13.02;8.00;;;3.50;90.50;;;;;;5032286;28;20086;-63
2021/01/12 07:23:10;;;;;;;12.65;8.38;;;3.40;90.60;;;;;;5034277;28;20922;-62
2021/01/12 07:25:44;;;;;;;12.60;7.80;;;3.50;90.40;;;;;;5036482;28;20048;-63
2021/01/12 07:28:09;;;;;;;10.27;6.78;;;3.50;90.40;;;;;;5037088;28;20041;-63
2021/01/12 07:30:39;;;;;;;10.80;7.15;;;3.50;90.40;;;;;;5036927;28;20043;-62
2021/01/12 07:33:06;;;;;;;13.27;7.93;;;3.60;90.30;;;;;;5031920;28;20036;-63
2021/01/12 07:35:34;;;;;;;10.98;7.10;;;3.60;90.10;;;;;;5034163;28;20036;-63
2021/01/12 07:38:00;;;;;;;12.25;7.78;;;3.50;90.10;;;;;;5026309;28;20029;-62
2021/01/12 07:40:26;;;;;;;9.80;6.82;;;3.50;90.40;;;;;;5031118;28;20425;-62
2021/01/12 07:42:55;;;;;;;11.05;6.65;;;3.50;90.30;;;;;;5036912;28;20036;-62
2021/01/12 07:45:27;;;;;;;9.70;6.22;;;3.30;90.60;;;;;;5033345;28;20033;-63
2021/01/12 07:47:56;;;;;;;10.82;6.53;;;3.30;90.80;;;;;;5027262;28;20037;-63
2021/01/12 07:50:24;;;;;;;10.55;6.97;;;3.30;90.80;;;;;;5034515;28;20033;-62
2021/01/12 07:52:50;;;;;;;10.57;6.70;;;3.40;90.60;;;;;;5026927;28;20108;-63
2021/01/12 07:55:16;;;;;;;9.23;6.15;;;3.40;90.50;;;;;;5032964;28;20140;-63
2021/01/12 07:57:42;;;;;;;11.05;6.65;;;3.40;90.60;;;;;;5036738;28;20370;-63
2021/01/12 08:00:11;;;;;;;8.02;5.47;;;3.40;90.50;;;;;;5036776;28;20033;-63
2021/01/12 08:02:50;;;;;;;8.88;5.70;;;3.40;90.50;;;;;;5036071;28;20033;-63
2021/01/12 08:05:18;;;;;;;7.97;6.13;;;3.30;90.50;;;;;;5036298;28;20110;-63
2021/01/12 08:07:44;;;;;;;8.32;5.95;;;3.40;90.70;;;;;;5035815;28;20049;-65
2021/01/12 08:10:10;;;;;;;7.45;5.85;;;3.30;90.70;;;;;;5034975;28;20048;-63
2021/01/12 08:12:36;;;;;;;9.05;6.13;;;3.30;90.90;;;;;;5033323;28;20037;-61
2021/01/12 08:15:15;;;;;;;10.15;6.40;;;3.30;91.00;;;;;;5035560;28;20400;-63
2021/01/12 08:17:50;;;;;;;9.75;6.05;;;3.30;90.80;;;;;;5032068;28;20481;-63
2021/01/12 08:20:18;;;;;;;9.50;6.05;;;3.30;91.00;;;;;;5036166;28;20036;-66
2021/01/12 08:22:54;;;;;;;8.82;5.22;;;3.40;90.80;;;;;;5036863;28;20119;-63
2021/01/12 08:25:20;;;;;;;7.60;4.75;;;3.50;90.50;;;;;;5033795;28;20064;-70
2021/01/12 08:27:53;;;;;;;32.15;13.32;;;3.60;90.20;;;;;;5036182;28;20230;-62
2021/01/12 08:30:20;;;;;;;54.53;21.60;;;5.20;89.80;;;;;;5039657;28;20037;-62
2021/01/12 08:33:15;;;;;;;61.60;25.35;;;6.30;82.60;;;;;;5039910;28;20037;-61
2021/01/12 08:35:46;;;;;;;25.45;10.32;;;7.20;76.80;;;;;;5000698;28;20175;-61
2021/01/12 08:38:13;;;;;;;3.90;2.75;;;7.80;71.90;;;;;;5037484;28;20047;-64
2021/01/12 08:40:41;;;;;;;4.35;2.80;;;7.90;69.10;;;;;;5039867;28;20044;-63
2021/01/12 08:43:21;;;;;;;4.25;3.33;;;7.50;69.80;;;;;;5040050;28;20041;-63
2021/01/12 08:45:48;;;;;;;5.18;3.50;;;6.70;73.00;;;;;;5039363;28;20511;-64
2021/01/12 08:48:16;;;;;;;4.97;4.30;;;6.00;75.60;;;;;;5038352;28;20109;-63
2021/01/12 08:50:46;;;;;;;4.93;3.65;;;5.60;78.50;;;;;;5037725;28;20060;-63
2021/01/12 08:53:26;;;;;;;5.57;4.18;;;5.20;80.90;;;;;;5025273;28;20037;-63
2021/01/12 08:55:51;;;;;;;4.63;3.55;;;4.60;83.80;;;;;;5039312;28;20024;-63
2021/01/12 08:58:18;;;;;;;4.63;3.28;;;4.40;85.80;;;;;;5039321;28;20821;-63
2021/01/12 09:00:43;;;;;;;5.53;3.88;;;4.20;87.00;;;;;;5039663;28;20552;-64
2021/01/12 09:03:13;;;;;;;6.72;4.57;;;4.10;87.60;;;;;;5039253;28;20039;-64
2021/01/12 09:05:40;;;;;;;4.40;3.55;;;4.10;88.00;;;;;;5039196;28;20043;-68
2021/01/12 09:08:09;;;;;;;4.45;3.63;;;4.00;87.90;;;;;;5034191;28;20045;-63
2021/01/12 09:10:37;;;;;;;5.20;4.10;;;4.00;88.20;;;;;;5039415;28;20105;-63
2021/01/12 09:13:02;;;;;;;6.03;4.07;;;4.00;88.40;;;;;;5039284;28;20763;-63
2021/01/12 09:15:33;;;;;;;6.13;4.35;;;3.90;88.50;;;;;;5039119;28;20032;-63
2021/01/12 09:18:04;;;;;;;5.65;4.13;;;3.80;89.40;;;;;;5036201;28;20130;-63
2021/01/12 09:20:30;;;;;;;15.35;8.57;;;3.80;89.90;;;;;;5033272;28;20758;-66
2021/01/12 09:23:07;;;;;;;9.68;6.72;;;3.90;89.60;;;;;;5039276;28;20098;-64
2021/01/12 09:25:33;;;;;;;37.28;19.08;;;3.90;89.50;;;;;;5037042;28;20037;-64
2021/01/12 09:28:11;;;;;;;11.73;7.35;;;3.90;89.10;;;;;;5028355;28;20091;-62
2021/01/12 09:30:37;;;;;;;23.33;12.18;;;3.90;89.50;;;;;;5034406;28;20117;-63
2021/01/12 09:33:03;;;;;;;15.05;8.35;;;3.90;89.70;;;;;;5037523;28;20040;-63
2021/01/12 09:35:29;;;;;;;6.47;4.00;;;3.90;89.90;;;;;;5034910;28;20044;-63
2021/01/12 09:38:02;;;;;;;8.57;4.70;;;3.90;89.40;;;;;;5050751;28;20037;-69
2021/01/12 09:40:29;;;;;;;17.08;8.88;;;4.00;89.20;;;;;;5036430;28;20037;-69
2021/01/12 09:42:54;;;;;;;13.23;6.45;;;4.10;89.20;;;;;;5038388;28;20038;-70
2021/01/12 09:45:20;;;;;;;11.77;6.05;;;4.10;88.30;;;;;;5037068;28;20032;-69
2021/01/12 09:47:46;;;;;;;33.55;12.20;;;4.10;88.60;;;;;;5035259;28;20048;-63
2021/01/12 09:50:13;;;;;;;12.05;6.45;;;4.10;88.30;;;;;;5035797;28;20039;-63
2021/01/12 09:52:39;;;;;;;11.75;5.85;;;4.00;89.10;;;;;;5037876;28;20374;-62
2021/01/12 09:55:05;;;;;;;21.33;10.00;;;3.90;89.60;;;;;;5037834;28;20044;-62
2021/01/12 09:57:35;;;;;;;19.98;8.80;;;3.90;90.00;;;;;;5036977;28;20108;-67
2021/01/12 10:00:02;;;;;;;47.25;17.02;;;3.90;90.10;;;;;;5031085;28;20036;-67
2021/01/12 10:02:37;;;;;;;29.45;12.32;;;3.90;90.10;;;;;;5033255;28;20442;-67
2021/01/12 10:05:03;;;;;;;22.42;9.55;;;4.00;89.80;;;;;;5038004;28;20037;-67
2021/01/12 10:07:29;;;;;;;21.88;9.40;;;3.90;89.80;;;;;;5037543;28;20040;-67
2021/01/12 10:09:55;;;;;;;48.83;18.88;;;3.90;90.00;;;;;;5039042;28;20040;-67
2021/01/12 10:12:20;;;;;;;58.95;23.48;;;4.00;90.10;;;;;;5036143;28;20116;-67
2021/01/12 10:14:46;;;;;;;51.70;19.92;;;3.90;89.90;;;;;;5037919;28;20036;-65
2021/01/12 10:17:12;;;;;;;21.08;9.38;;;3.90;90.20;;;;;;5038389;28;20416;-62
2021/01/12 10:19:37;;;;;;;19.48;8.60;;;4.00;90.20;;;;;;5037933;28;20028;-65
2021/01/12 10:22:03;;;;;;;33.30;14.68;;;4.00;90.10;;;;;;5033261;28;20060;-66
2021/01/12 10:24:29;;;;;;;60.40;20.35;;;3.90;90.30;;;;;;5037085;28;20032;-68
2021/01/12 10:26:55;;;;;;;49.67;20.00;;;4.10;90.30;;;;;;5028034;28;20033;-69
2021/01/12 10:29:26;;;;;;;9.35;6.15;;;4.10;90.00;;;;;;5036119;28;20451;-69
2021/01/12 10:31:52;;;;;;;6.72;4.97;;;4.10;89.50;;;;;;5037618;28;20079;-71
2021/01/12 10:34:18;;;;;;;10.95;5.80;;;3.90;90.10;;;;;;5036618;28;20032;-71
2021/01/12 10:36:49;;;;;;;6.90;4.80;;;3.80;90.60;;;;;;5036714;28;20156;-69
2021/01/12 10:39:15;;;;;;;10.63;5.65;;;3.90;90.80;;;;;;5037473;28;20066;-71
2021/01/12 10:41:41;;;;;;;9.80;6.07;;;3.80;90.90;;;;;;5036950;28;20544;-69
2021/01/12 10:44:07;;;;;;;8.63;5.45;;;3.90;91.00;;;;;;5037998;28;20059;-69
2021/01/12 10:46:33;;;;;;;7.35;4.93;;;4.00;90.90;;;;;;5035937;28;20036;-69
2021/01/12 10:48:59;;;;;;;5.65;4.00;;;4.10;90.70;;;;;;5037866;28;20024;-67
2021/01/12 10:51:24;;;;;;;5.57;3.72;;;4.30;90.30;;;;;;5036534;28;20029;-69
2021/01/12 10:53:50;;;;;;;5.70;3.90;;;4.40;90.20;;;;;;5028022;28;20079;-69
2021/01/12 10:56:16;;;;;;;4.80;3.55;;;4.40;90.10;;;;;;5033716;28;20144;-68
2021/01/12 10:58:42;;;;;;;6.05;4.43;;;4.40;90.00;;;;;;5038140;28;20057;-65
2021/01/12 11:01:10;;;;;;;6.45;4.80;;;4.50;90.10;;;;;;5037803;28;20572;-65
2021/01/12 11:03:38;;;;;;;5.80;4.32;;;4.50;90.10;;;;;;5036652;28;20049;-65
2021/01/12 11:06:04;;;;;;;5.55;3.97;;;4.50;90.00;;;;;;5036740;28;20033;-65
2021/01/12 11:08:30;;;;;;;5.63;3.75;;;4.60;89.70;;;;;;5032133;28;20374;-65
2021/01/12 11:10:55;;;;;;;4.47;3.30;;;4.70;89.20;;;;;;5033673;28;20060;-69
2021/01/12 11:13:21;;;;;;;4.18;3.38;;;4.70;89.50;;;;;;5036767;28;20067;-65
2021/01/12 11:15:47;;;;;;;5.68;3.88;;;4.70;89.40;;;;;;5036222;28;20028;-65
2021/01/12 11:18:14;;;;;;;5.55;3.50;;;4.80;89.10;;;;;;5032880;28;20025;-65
2021/01/12 11:20:41;;;;;;;5.78;3.97;;;4.80;89.20;;;;;;5037570;28;20056;-65
2021/01/12 11:23:07;;;;;;;5.65;4.63;;;4.70;89.70;;;;;;5031182;28;20017;-72
2021/01/12 11:25:32;;;;;;;4.80;3.90;;;4.70;90.00;;;;;;5028486;28;20036;-72
2021/01/12 11:27:58;;;;;;;5.72;4.45;;;4.80;89.20;;;;;;5036992;28;20033;-72
2021/01/12 11:30:24;;;;;;;5.93;3.22;;;4.80;89.60;;;;;;5036804;28;20122;-72
2021/01/12 11:32:52;;;;;;;4.15;3.33;;;4.90;89.00;;;;;;5036519;28;20029;-64
2021/01/12 11:35:18;;;;;;;6.22;4.53;;;4.90;88.90;;;;;;5035552;28;20072;-69
2021/01/12 11:37:46;;;;;;;4.70;3.53;;;4.90;89.40;;;;;;5032159;28;20038;-69
2021/01/12 11:40:13;;;;;;;4.63;3.55;;;4.90;89.20;;;;;;5023770;28;20042;-69
2021/01/12 11:42:38;;;;;;;5.78;4.65;;;5.00;88.50;;;;;;5033478;28;20071;-69
2021/01/12 11:45:05;;;;;;;8.98;6.78;;;5.10;88.60;;;;;;5035728;28;20116;-69
2021/01/12 11:47:30;;;;;;;5.03;3.38;;;5.00;89.10;;;;;;5036206;28;20047;-68
2021/01/12 11:49:56;;;;;;;6.55;4.40;;;5.00;88.70;;;;;;5037282;28;20037;-69
2021/01/12 11:52:22;;;;;;;7.60;4.45;;;5.00;89.30;;;;;;5036035;28;20700;-67
2021/01/12 11:54:48;;;;;;;11.40;6.50;;;4.90;89.00;;;;;;5035641;28;20136;-67
2021/01/12 11:57:14;;;;;;;9.10;6.10;;;5.00;89.50;;;;;;5032376;28;20029;-67
2021/01/12 11:59:39;;;;;;;7.13;5.05;;;5.10;89.00;;;;;;5036672;28;20249;-67
2021/01/12 12:02:05;;;;;;;4.57;3.70;;;5.10;88.60;;;;;;5032147;28;20112;-68
2021/01/12 12:04:31;;;;;;;6.63;3.70;;;5.10;88.90;;;;;;5031316;28;20044;-73
2021/01/12 12:07:02;;;;;;;7.13;5.55;;;5.20;88.70;;;;;;5035642;28;20065;-69
2021/01/12 12:09:32;;;;;;;9.80;6.82;;;5.20;88.70;;;;;;5027682;28;20741;-69
2021/01/12 12:11:59;;;;;;;9.55;5.85;;;5.30;88.90;;;;;;5035230;28;20107;-68
2021/01/12 12:14:25;;;;;;;8.35;5.68;;;5.20;87.80;;;;;;5038958;28;20025;-67
2021/01/12 12:16:54;;;;;;;6.45;4.80;;;5.30;88.30;;;;;;5028818;28;20033;-67
2021/01/12 12:19:20;;;;;;;6.68;4.47;;;5.30;88.30;;;;;;5039446;28;20087;-67
2021/01/12 12:21:51;;;;;;;4.55;3.40;;;5.30;88.00;;;;;;5033842;28;20732;-69
2021/01/12 12:24:18;;;;;;;9.23;4.90;;;5.20;88.40;;;;;;5036258;28;20183;-66
2021/01/12 12:26:45;;;;;;;8.52;5.63;;;5.30;88.70;;;;;;5038857;28;20106;-69
2021/01/12 12:29:11;;;;;;;8.25;5.88;;;5.30;88.80;;;;;;5032415;28;20555;-68
2021/01/12 12:31:37;;;;;;;17.48;9.73;;;5.30;88.90;;;;;;5039343;28;20129;-68
2021/01/12 12:34:04;;;;;;;7.45;5.18;;;5.30;88.90;;;;;;5039785;28;20036;-69
2021/01/12 12:36:30;;;;;;;6.57;4.63;;;5.40;88.60;;;;;;5031658;28;20564;-68
2021/01/12 12:38:55;;;;;;;4.50;3.95;;;5.50;88.40;;;;;;5035220;28;20110;-68
2021/01/12 12:41:21;;;;;;;6.18;4.30;;;5.50;88.20;;;;;;5038999;28;20091;-68
2021/01/12 12:43:47;;;;;;;6.65;4.88;;;5.60;88.10;;;;;;5039166;28;20037;-68
2021/01/12 12:46:15;;;;;;;10.00;5.18;;;5.60;88.20;;;;;;5035779;28;20033;-69
2021/01/12 12:48:41;;;;;;;37.10;23.92;;;5.60;88.00;;;;;;5033610;28;20052;-68